createdAt,value
2018-09-17T00:00:03.640Z,73.80
2018-09-17T00:01:09.260Z,73.70
2018-09-17T00:02:13.292Z,73.50
2018-09-17T00:03:17.417Z,73.40
2018-09-17T00:04:21.506Z,74.20
2018-09-17T00:05:25.913Z,73.20
2018-09-17T00:06:29.998Z,74.20
2018-09-17T00:07:34.032Z,73.20
2018-09-17T00:08:38.324Z,73.90
2018-09-17T00:09:42.432Z,73.10
2018-09-17T00:10:46.493Z,73.00
2018-09-17T00:11:50.521Z,73.60
2018-09-17T00:12:55.017Z,73.90
2018-09-17T00:13:59.080Z,73.50
2018-09-17T00:15:03.189Z,74.20
2018-09-17T00:16:07.894Z,73.30
2018-09-17T00:17:12.088Z,74.50
2018-09-17T00:18:16.456Z,74.20
2018-09-17T00:19:20.525Z,73.80
2018-09-17T00:20:24.564Z,74.10
2018-09-17T00:21:28.729Z,73.90
2018-09-17T00:22:32.785Z,73.80
2018-09-17T00:23:36.823Z,73.80
2018-09-17T00:24:41.009Z,74.20
2018-09-17T00:25:45.383Z,74.20
2018-09-17T00:26:49.537Z,74.80
2018-09-17T00:27:53.632Z,73.90
2018-09-17T00:28:57.915Z,74.10
2018-09-17T00:30:02.035Z,73.90
2018-09-17T00:31:06.286Z,73.90
2018-09-17T00:32:10.467Z,74.10
2018-09-17T00:33:14.529Z,74.30
2018-09-17T00:34:19.009Z,74.30
2018-09-17T00:35:23.087Z,74.20
2018-09-17T00:36:27.134Z,74.20
2018-09-17T00:37:31.413Z,74.30
2018-09-17T00:38:35.583Z,74.10
2018-09-17T00:39:39.737Z,74.10
2018-09-17T00:40:43.798Z,74.20
2018-09-17T00:41:47.943Z,74.10
2018-09-17T00:42:52.030Z,74.30
2018-09-17T00:43:56.292Z,74.40
2018-09-17T00:45:00.412Z,74.60
2018-09-17T00:46:04.512Z,74.60
2018-09-17T00:47:08.580Z,74.40
2018-09-17T00:48:12.661Z,74.30
2018-09-17T00:49:16.774Z,74.50
2018-09-17T00:50:20.872Z,74.60
2018-09-17T00:51:25.250Z,74.60
2018-09-17T00:52:29.392Z,74.50
2018-09-17T00:53:33.760Z,75.40
2018-09-17T00:54:37.910Z,74.70
2018-09-17T00:55:42.054Z,74.60
2018-09-17T00:56:46.157Z,74.70
2018-09-17T00:57:50.322Z,74.90
2018-09-17T00:58:54.422Z,75.60
2018-09-17T00:59:58.747Z,74.80
2018-09-17T01:01:02.881Z,74.50
2018-09-17T01:02:07.176Z,74.70
2018-09-17T01:03:11.374Z,74.70
2018-09-17T01:04:15.503Z,74.70
2018-09-17T01:05:19.630Z,74.70
2018-09-17T01:06:23.719Z,74.70
2018-09-17T01:07:28.097Z,74.80
2018-09-17T01:08:32.204Z,74.70
2018-09-17T01:09:43.291Z,74.70
2018-09-17T01:10:47.330Z,74.70
2018-09-17T01:11:51.588Z,74.40
2018-09-17T01:12:55.669Z,74.40
2018-09-17T01:14:05.992Z,74.30
2018-09-17T01:15:15.992Z,74.20
2018-09-17T01:16:26.004Z,74.20
2018-09-17T01:17:36.120Z,74.10
2018-09-17T01:18:46.424Z,74.30
2018-09-17T01:19:50.654Z,74.40
2018-09-17T01:20:54.988Z,74.50
2018-09-17T01:21:59.419Z,74.60
2018-09-17T01:23:03.770Z,74.70
2018-09-17T01:24:08.138Z,74.70
2018-09-17T01:25:12.258Z,74.80
2018-09-17T01:26:16.545Z,74.90
2018-09-17T01:27:20.601Z,74.80
2018-09-17T01:28:24.810Z,74.80
2018-09-17T01:29:28.934Z,74.90
2018-09-17T01:30:33.110Z,75.00
2018-09-17T01:31:37.163Z,75.10
2018-09-17T01:32:41.545Z,75.10
2018-09-17T01:33:45.550Z,75.10
2018-09-17T01:34:49.602Z,75.10
2018-09-17T01:35:53.723Z,75.10
2018-09-17T01:36:57.833Z,75.40
2018-09-17T01:38:01.946Z,75.30
2018-09-17T01:39:08.721Z,75.10
2018-09-17T01:40:12.845Z,75.10
2018-09-17T01:41:17.293Z,75.00
2018-09-17T01:42:21.360Z,75.00
2018-09-17T01:43:25.410Z,75.10
2018-09-17T01:44:29.541Z,75.00
2018-09-17T01:45:33.618Z,75.00
2018-09-17T01:46:38.065Z,75.10
2018-09-17T01:47:42.263Z,75.80
2018-09-17T01:48:46.374Z,75.10
2018-09-17T01:49:50.484Z,75.10
2018-09-17T01:50:54.562Z,75.30
2018-09-17T01:51:58.664Z,75.00
2018-09-17T01:53:02.820Z,75.00
2018-09-17T01:54:07.080Z,75.00
2018-09-17T01:55:11.189Z,75.00
2018-09-17T01:56:15.314Z,75.20
2018-09-17T01:57:19.348Z,75.30
2018-09-17T01:58:23.452Z,75.00
2018-09-17T01:59:27.777Z,75.00
2018-09-17T02:00:31.883Z,75.10
2018-09-17T02:01:36.094Z,75.10
2018-09-17T02:02:40.213Z,75.30
2018-09-17T02:03:44.295Z,75.30
2018-09-17T02:04:48.429Z,75.30
2018-09-17T02:05:52.652Z,75.40
2018-09-17T02:06:56.718Z,75.60
2018-09-17T02:08:00.844Z,75.40
2018-09-17T02:09:05.680Z,75.40
2018-09-17T02:10:09.701Z,75.40
2018-09-17T02:11:13.741Z,75.60
2018-09-17T02:12:17.803Z,76.10
2018-09-17T02:13:21.893Z,75.40
2018-09-17T02:14:25.984Z,75.40
2018-09-17T02:15:30.048Z,75.30
2018-09-17T02:16:34.098Z,75.30
2018-09-17T02:17:38.212Z,75.30
2018-09-17T02:18:42.392Z,75.30
2018-09-17T02:19:46.550Z,75.40
2018-09-17T02:20:50.643Z,75.30
2018-09-17T02:21:54.744Z,75.50
2018-09-17T02:22:58.824Z,75.40
2018-09-17T02:24:02.940Z,75.50
2018-09-17T02:25:07.098Z,75.60
2018-09-17T02:26:11.424Z,75.50
2018-09-17T02:27:15.523Z,75.50
2018-09-17T02:28:19.706Z,75.50
2018-09-17T02:29:23.788Z,75.40
2018-09-17T02:30:27.920Z,75.80
2018-09-17T02:31:32.010Z,75.80
2018-09-17T02:32:36.133Z,75.70
2018-09-17T02:33:40.209Z,75.80
2018-09-17T02:34:44.330Z,75.90
2018-09-17T02:35:48.425Z,75.80
2018-09-17T02:36:52.817Z,75.80
2018-09-17T02:37:56.911Z,75.70
2018-09-17T02:39:01.084Z,75.80
2018-09-17T02:40:09.620Z,76.00
2018-09-17T02:41:13.763Z,76.00
2018-09-17T02:42:17.867Z,76.00
2018-09-17T02:43:21.927Z,75.90
2018-09-17T02:44:26.053Z,76.70
2018-09-17T02:45:30.094Z,75.80
2018-09-17T02:46:34.163Z,75.70
2018-09-17T02:47:38.332Z,75.70
2018-09-17T02:48:42.381Z,75.90
2018-09-17T02:49:46.590Z,75.80
2018-09-17T02:50:50.666Z,76.00
2018-09-17T02:51:54.743Z,75.90
2018-09-17T02:52:58.893Z,76.00
2018-09-17T02:54:03.002Z,76.00
2018-09-17T02:55:07.652Z,76.00
2018-09-17T02:56:11.692Z,76.00
2018-09-17T02:57:15.815Z,76.00
2018-09-17T02:58:19.938Z,76.00
2018-09-17T02:59:24.010Z,76.00
2018-09-17T03:00:28.089Z,76.10
2018-09-17T03:01:32.158Z,76.30
2018-09-17T03:02:36.257Z,75.60
2018-09-17T03:03:40.356Z,76.40
2018-09-17T03:04:44.466Z,76.60
2018-09-17T03:05:52.270Z,76.50
2018-09-17T03:06:56.469Z,76.50
2018-09-17T03:08:00.597Z,76.40
2018-09-17T03:09:06.319Z,76.60
2018-09-17T03:10:10.387Z,76.70
2018-09-17T03:11:14.554Z,76.70
2018-09-17T03:12:18.612Z,76.70
2018-09-17T03:13:22.748Z,76.90
2018-09-17T03:14:28.383Z,77.00
2018-09-17T03:15:54.563Z,77.20
2018-09-17T03:17:07.780Z,77.30
2018-09-17T03:18:11.862Z,77.00
2018-09-17T03:19:15.894Z,77.10
2018-09-17T03:20:19.998Z,77.30
2018-09-17T03:21:24.265Z,77.30
2018-09-17T03:22:28.380Z,77.40
2018-09-17T03:23:33.987Z,77.50
2018-09-17T03:24:38.356Z,77.50
2018-09-17T03:25:42.436Z,77.60
2018-09-17T03:26:46.551Z,77.60
2018-09-17T03:27:50.754Z,77.60
2018-09-17T03:28:54.862Z,77.80
2018-09-17T03:29:58.924Z,77.80
2018-09-17T03:31:03.001Z,77.80
2018-09-17T03:32:07.119Z,77.80
2018-09-17T03:33:11.221Z,77.80
2018-09-17T03:34:15.272Z,78.00
2018-09-17T03:35:19.429Z,77.90
2018-09-17T03:36:23.557Z,77.90
2018-09-17T03:37:28.423Z,77.90
2018-09-17T03:38:46.975Z,78.00
2018-09-17T03:39:51.113Z,78.00
2018-09-17T03:40:55.249Z,77.80
2018-09-17T03:41:59.304Z,77.80
2018-09-17T03:43:03.346Z,78.10
2018-09-17T03:44:07.434Z,78.50
2018-09-17T03:45:11.560Z,78.20
2018-09-17T03:46:15.739Z,78.30
2018-09-17T03:47:19.810Z,78.20
2018-09-17T03:48:23.936Z,78.20
2018-09-17T03:49:27.960Z,79.00
2018-09-17T03:50:32.084Z,78.40
2018-09-17T03:51:36.198Z,78.40
2018-09-17T03:52:40.311Z,78.30
2018-09-17T03:53:44.377Z,78.30
2018-09-17T03:54:48.514Z,78.40
2018-09-17T03:55:52.645Z,78.50
2018-09-17T03:56:56.697Z,78.50
2018-09-17T03:58:00.812Z,78.50
2018-09-17T03:59:04.845Z,78.40
2018-09-17T04:00:08.910Z,78.50
2018-09-17T04:01:13.052Z,78.40
2018-09-17T04:02:17.152Z,78.30
2018-09-17T04:03:21.484Z,78.20
2018-09-17T04:04:25.593Z,78.30
2018-09-17T04:05:29.708Z,78.40
2018-09-17T04:06:33.855Z,78.40
2018-09-17T04:07:37.955Z,78.20
2018-09-17T04:08:42.015Z,78.20
2018-09-17T04:09:46.124Z,78.20
2018-09-17T04:10:50.251Z,78.40
2018-09-17T04:11:54.493Z,78.30
2018-09-17T04:12:58.743Z,78.50
2018-09-17T04:14:02.859Z,78.60
2018-09-17T04:15:07.008Z,78.70
2018-09-17T04:16:11.167Z,78.70
2018-09-17T04:17:15.312Z,78.80
2018-09-17T04:18:19.359Z,78.80
2018-09-17T04:19:23.367Z,79.00
2018-09-17T04:20:27.742Z,79.00
2018-09-17T04:21:31.890Z,79.10
2018-09-17T04:22:35.996Z,79.10
2018-09-17T04:23:40.055Z,79.00
2018-09-17T04:24:44.175Z,79.00
2018-09-17T04:25:48.283Z,79.10
2018-09-17T04:26:52.486Z,79.00
2018-09-17T04:27:56.736Z,78.90
2018-09-17T04:29:00.859Z,78.90
2018-09-17T04:30:04.916Z,79.00
2018-09-17T04:31:09.074Z,79.00
2018-09-17T04:32:13.118Z,79.10
2018-09-17T04:33:17.213Z,79.10
2018-09-17T04:34:21.299Z,79.20
2018-09-17T04:35:25.477Z,79.20
2018-09-17T04:36:29.511Z,79.20
2018-09-17T04:37:33.548Z,79.50
2018-09-17T04:38:37.617Z,79.50
2018-09-17T04:39:41.669Z,79.40
2018-09-17T04:40:45.799Z,79.40
2018-09-17T04:41:49.935Z,79.50
2018-09-17T04:42:54.070Z,79.70
2018-09-17T04:43:58.213Z,79.50
2018-09-17T04:45:02.322Z,79.50
2018-09-17T04:46:06.465Z,79.60
2018-09-17T04:47:10.610Z,79.60
2018-09-17T04:48:15.024Z,79.60
2018-09-17T04:49:19.219Z,79.60
2018-09-17T04:50:23.378Z,78.90
2018-09-17T04:51:27.530Z,79.70
2018-09-17T04:52:32.415Z,79.80
2018-09-17T04:53:36.582Z,79.70
2018-09-17T04:54:40.657Z,79.80
2018-09-17T04:55:45.041Z,80.60
2018-09-17T04:56:49.137Z,79.80
2018-09-17T04:57:53.353Z,79.80
2018-09-17T04:58:57.434Z,79.70
2018-09-17T05:00:01.595Z,79.90
2018-09-17T05:01:05.667Z,79.90
2018-09-17T05:02:09.776Z,79.90
2018-09-17T05:03:13.828Z,79.90
2018-09-17T05:04:18.043Z,80.00
2018-09-17T05:05:22.124Z,80.00
2018-09-17T05:06:26.245Z,80.00
2018-09-17T05:07:30.390Z,80.00
2018-09-17T05:08:34.468Z,80.00
2018-09-17T05:09:38.729Z,80.20
2018-09-17T05:10:42.771Z,80.20
2018-09-17T05:11:46.886Z,81.00
2018-09-17T05:12:51.107Z,81.00
2018-09-17T05:13:55.148Z,80.30
2018-09-17T05:14:59.162Z,80.40
2018-09-17T05:16:03.387Z,80.40
2018-09-17T05:17:07.536Z,80.40
2018-09-17T05:18:11.622Z,81.20
2018-09-17T05:19:15.790Z,80.30
2018-09-17T05:20:19.899Z,80.40
2018-09-17T05:21:24.089Z,80.50
2018-09-17T05:22:28.261Z,80.60
2018-09-17T05:23:32.385Z,80.70
2018-09-17T05:25:46.897Z,80.70
2018-09-17T05:26:51.047Z,80.80
2018-09-17T05:27:55.063Z,80.70
2018-09-17T05:28:59.181Z,80.80
2018-09-17T05:30:03.374Z,81.40
2018-09-17T05:31:07.453Z,81.40
2018-09-17T05:32:11.573Z,80.60
2018-09-17T05:33:15.704Z,80.70
2018-09-17T05:34:19.945Z,80.70
2018-09-17T05:35:24.038Z,80.70
2018-09-17T05:36:28.432Z,80.70
2018-09-17T05:37:32.535Z,80.80
2018-09-17T05:38:36.701Z,80.80
2018-09-17T05:39:40.756Z,80.80
2018-09-17T05:40:44.886Z,80.80
2018-09-17T05:41:49.040Z,80.80
2018-09-17T05:42:53.166Z,80.80
2018-09-17T05:43:57.845Z,80.80
2018-09-17T05:45:02.030Z,80.90
2018-09-17T05:46:06.208Z,80.90
2018-09-17T05:47:10.381Z,80.90
2018-09-17T05:48:14.529Z,80.80
2018-09-17T05:49:18.660Z,80.80
2018-09-17T05:50:22.763Z,80.90
2018-09-17T05:51:26.932Z,80.90
2018-09-17T05:52:31.095Z,80.80
2018-09-17T05:53:35.122Z,80.80
2018-09-17T05:54:39.223Z,80.80
2018-09-17T05:55:43.324Z,80.70
2018-09-17T05:56:47.382Z,80.70
2018-09-17T05:57:51.464Z,80.70
2018-09-17T05:58:55.790Z,80.60
2018-09-17T06:00:00.104Z,80.70
2018-09-17T06:01:04.441Z,80.50
2018-09-17T06:02:08.731Z,80.80
2018-09-17T06:03:12.885Z,80.80
2018-09-17T06:04:16.991Z,80.80
2018-09-17T06:05:21.084Z,80.70
2018-09-17T06:06:25.524Z,80.90
2018-09-17T06:07:29.663Z,80.80
2018-09-17T06:08:33.766Z,80.80
2018-09-17T06:09:38.101Z,80.80
2018-09-17T06:10:42.168Z,80.70
2018-09-17T06:11:46.330Z,80.60
2018-09-17T06:12:50.404Z,80.70
2018-09-17T06:13:54.505Z,80.70
2018-09-17T06:14:58.649Z,80.90
2018-09-17T06:16:02.768Z,80.90
2018-09-17T06:17:06.940Z,80.90
2018-09-17T06:18:10.988Z,81.00
2018-09-17T06:19:15.133Z,80.90
2018-09-17T06:20:19.247Z,80.90
2018-09-17T06:21:23.317Z,80.90
2018-09-17T06:22:27.474Z,81.00
2018-09-17T06:23:31.622Z,81.10
2018-09-17T06:24:35.728Z,80.30
2018-09-17T06:25:39.827Z,81.10
2018-09-17T06:26:44.015Z,81.20
2018-09-17T06:27:48.296Z,81.30
2018-09-17T06:28:52.678Z,81.30
2018-09-17T06:29:56.851Z,81.40
2018-09-17T06:31:01.026Z,81.40
2018-09-17T06:32:05.260Z,81.40
2018-09-17T06:33:09.406Z,81.50
2018-09-17T06:34:13.581Z,81.50
2018-09-17T06:35:17.603Z,81.40
2018-09-17T06:36:21.876Z,81.40
2018-09-17T06:37:25.877Z,81.60
2018-09-17T06:38:30.202Z,81.70
2018-09-17T06:39:34.376Z,81.70
2018-09-17T06:40:38.584Z,81.70
2018-09-17T06:41:42.725Z,81.70
2018-09-17T06:42:46.782Z,81.70
2018-09-17T06:43:50.827Z,81.70
2018-09-17T06:44:55.048Z,81.70
2018-09-17T06:45:59.286Z,81.70
2018-09-17T06:47:03.410Z,81.90
2018-09-17T06:48:07.592Z,82.10
2018-09-17T06:49:11.697Z,82.00
2018-09-17T06:50:15.786Z,82.10
2018-09-17T06:51:19.865Z,82.10
2018-09-17T06:52:23.930Z,82.10
2018-09-17T06:53:28.078Z,82.00
2018-09-17T06:54:32.204Z,82.10
2018-09-17T06:55:36.268Z,82.10
2018-09-17T06:56:40.371Z,82.20
2018-09-17T06:57:44.568Z,82.10
2018-09-17T06:58:49.145Z,82.10
2018-09-17T06:59:53.352Z,82.20
2018-09-17T07:00:57.544Z,82.20
2018-09-17T07:02:01.808Z,82.30
2018-09-17T07:03:06.201Z,82.30
2018-09-17T07:04:10.315Z,82.40
2018-09-17T07:05:14.517Z,82.40
2018-09-17T07:06:18.739Z,82.40
2018-09-17T07:07:22.850Z,82.40
2018-09-17T07:08:27.079Z,82.60
2018-09-17T07:09:31.185Z,82.70
2018-09-17T07:10:35.308Z,82.70
2018-09-17T07:11:40.186Z,82.70
2018-09-17T07:12:44.215Z,82.70
2018-09-17T07:13:48.427Z,82.60
2018-09-17T07:14:52.529Z,82.90
2018-09-17T07:15:56.613Z,82.80
2018-09-17T07:17:00.729Z,82.80
2018-09-17T07:18:04.813Z,82.90
2018-09-17T07:19:08.906Z,82.90
2018-09-17T07:20:13.027Z,82.90
2018-09-17T07:21:17.150Z,82.90
2018-09-17T07:22:21.436Z,82.80
2018-09-17T07:23:25.532Z,82.80
2018-09-17T07:24:29.761Z,82.80
2018-09-17T07:25:33.971Z,82.80
2018-09-17T07:26:38.172Z,82.80
2018-09-17T07:27:42.327Z,82.80
2018-09-17T07:28:46.432Z,82.90
2018-09-17T07:29:50.726Z,82.80
2018-09-17T07:30:54.859Z,82.80
2018-09-17T07:31:58.957Z,82.60
2018-09-17T07:33:03.056Z,82.60
2018-09-17T07:34:07.269Z,82.80
2018-09-17T07:35:11.420Z,82.70
2018-09-17T07:36:15.610Z,82.70
2018-09-17T07:37:19.652Z,82.60
2018-09-17T07:38:23.869Z,82.50
2018-09-17T07:39:28.090Z,83.20
2018-09-17T07:40:32.275Z,82.50
2018-09-17T07:41:36.701Z,82.20
2018-09-17T07:42:40.815Z,82.10
2018-09-17T07:43:44.894Z,81.90
2018-09-17T07:44:49.048Z,81.60
2018-09-17T07:45:53.250Z,81.60
2018-09-17T07:46:57.437Z,81.60
2018-09-17T07:48:01.522Z,81.40
2018-09-17T07:49:05.704Z,81.30
2018-09-17T07:50:09.868Z,81.20
2018-09-17T07:51:14.224Z,81.20
2018-09-17T07:52:18.424Z,81.30
2018-09-17T07:53:22.564Z,80.90
2018-09-17T07:54:26.796Z,80.70
2018-09-17T07:55:30.966Z,80.60
2018-09-17T07:56:35.143Z,80.40
2018-09-17T07:57:39.318Z,80.30
2018-09-17T07:58:50.242Z,79.90
2018-09-17T07:59:54.439Z,79.80
2018-09-17T08:00:58.604Z,79.30
2018-09-17T08:02:02.822Z,79.10
2018-09-17T08:03:06.968Z,78.90
2018-09-17T08:04:11.222Z,78.70
2018-09-17T08:05:15.632Z,78.50
2018-09-17T08:06:19.860Z,78.50
2018-09-17T08:07:24.125Z,78.20
2018-09-17T08:08:28.206Z,78.00
2018-09-17T08:09:32.292Z,77.80
2018-09-17T08:10:36.436Z,77.80
2018-09-17T08:11:40.838Z,77.50
2018-09-17T08:12:45.135Z,77.60
2018-09-17T08:13:49.381Z,77.40
2018-09-17T08:14:53.472Z,77.00
2018-09-17T08:15:57.564Z,77.00
2018-09-17T08:17:01.885Z,76.60
2018-09-17T08:18:06.015Z,76.20
2018-09-17T08:19:10.145Z,75.90
2018-09-17T08:20:14.240Z,75.80
2018-09-17T08:21:18.330Z,75.80
2018-09-17T08:22:22.470Z,75.80
2018-09-17T08:23:26.555Z,75.00
2018-09-17T08:24:30.711Z,74.30
2018-09-17T08:25:34.861Z,74.90
2018-09-17T08:26:38.918Z,73.90
2018-09-17T08:27:43.008Z,74.80
2018-09-17T08:28:47.144Z,74.70
2018-09-17T08:29:51.198Z,74.10
2018-09-17T08:30:55.302Z,73.60
2018-09-17T08:31:59.358Z,73.40
2018-09-17T08:33:03.530Z,72.60
2018-09-17T08:34:07.602Z,71.70
2018-09-17T08:35:11.645Z,71.80
2018-09-17T08:36:15.942Z,71.40
2018-09-17T08:37:20.094Z,71.20
2018-09-17T08:38:24.213Z,70.90
2018-09-17T08:39:28.468Z,70.20
2018-09-17T08:40:32.659Z,68.90
2018-09-17T08:41:37.021Z,68.50
2018-09-17T08:42:41.627Z,69.10
2018-09-17T08:43:45.984Z,68.10
2018-09-17T08:44:50.366Z,68.10
2018-09-17T08:45:54.503Z,67.90
2018-09-17T08:46:58.628Z,68.00
2018-09-17T08:48:02.774Z,67.50
2018-09-17T08:49:07.055Z,67.40
2018-09-17T08:50:11.133Z,67.20
2018-09-17T08:51:15.309Z,66.80
2018-09-17T08:52:19.683Z,66.30
2018-09-17T08:53:24.202Z,66.10
2018-09-17T08:54:28.381Z,65.90
2018-09-17T08:55:37.969Z,66.00
2018-09-17T08:56:44.916Z,65.90
2018-09-17T08:57:54.502Z,65.90
2018-09-17T08:58:59.329Z,66.20
2018-09-17T09:00:10.111Z,64.40
2018-09-17T09:01:19.601Z,63.20
2018-09-17T09:02:29.024Z,63.00
2018-09-17T09:03:39.660Z,62.60
2018-09-17T09:04:49.368Z,62.40
2018-09-17T09:05:58.876Z,62.10
2018-09-17T09:07:08.186Z,61.00
2018-09-17T09:08:12.410Z,59.80
2018-09-17T09:09:16.543Z,59.70
2018-09-17T09:10:26.634Z,59.40
2018-09-17T09:11:36.175Z,59.00
2018-09-17T09:12:41.217Z,58.90
2018-09-17T09:13:50.406Z,59.20
2018-09-17T09:14:55.428Z,58.10
2018-09-17T09:15:59.675Z,58.60
2018-09-17T09:17:03.824Z,57.20
2018-09-17T09:18:08.936Z,56.50
2018-09-17T09:19:13.072Z,56.20
2018-09-17T09:20:17.363Z,55.70
2018-09-17T09:21:21.611Z,55.00
2018-09-17T09:22:25.908Z,54.70
2018-09-17T09:23:30.248Z,54.30
2018-09-17T09:24:34.716Z,54.60
2018-09-17T09:25:38.866Z,53.80
2018-09-17T09:26:43.243Z,53.40
2018-09-17T09:27:47.312Z,53.20
2018-09-17T09:28:51.381Z,53.00
2018-09-17T09:29:55.456Z,52.70
2018-09-17T09:30:59.590Z,52.10
2018-09-17T09:32:03.685Z,51.50
2018-09-17T09:33:07.924Z,51.00
2018-09-17T09:34:12.057Z,50.50
2018-09-17T09:35:16.948Z,50.30
2018-09-17T09:36:21.133Z,50.10
2018-09-17T09:37:25.328Z,49.00
2018-09-17T09:38:29.468Z,48.90
2018-09-17T09:39:33.627Z,48.90
2018-09-17T09:40:37.813Z,48.50
2018-09-17T09:41:42.090Z,48.10
2018-09-17T09:42:46.203Z,48.00
2018-09-17T09:43:50.364Z,47.80
2018-09-17T09:45:58.309Z,46.80
2018-09-17T09:47:02.458Z,47.30
2018-09-17T09:48:06.635Z,47.40
2018-09-17T09:49:10.814Z,47.10
2018-09-17T09:50:14.939Z,46.90
2018-09-17T09:51:19.232Z,46.60
2018-09-17T09:52:23.310Z,46.40
2018-09-17T09:53:27.370Z,45.90
2018-09-17T09:54:31.958Z,45.60
2018-09-17T09:55:36.281Z,45.50
2018-09-17T09:56:40.363Z,44.80
2018-09-17T09:57:44.415Z,45.00
2018-09-17T09:58:48.797Z,45.20
2018-09-17T09:59:53.015Z,44.40
2018-09-17T10:01:02.718Z,44.20
2018-09-17T10:02:12.549Z,43.20
2018-09-17T10:03:20.904Z,42.70
2018-09-17T10:04:25.372Z,41.60
2018-09-17T10:05:30.298Z,41.50
2018-09-17T10:06:34.555Z,41.30
2018-09-17T10:07:38.657Z,41.20
2018-09-17T10:08:48.205Z,41.20
2018-09-17T10:09:57.784Z,41.20
2018-09-17T10:11:07.285Z,40.90
2018-09-17T10:12:16.867Z,41.20
2018-09-17T10:13:26.626Z,40.30
2018-09-17T10:14:36.069Z,40.50
2018-09-17T10:15:45.662Z,41.20
2018-09-17T10:16:55.423Z,40.50
2018-09-17T10:18:05.137Z,40.40
2018-09-17T10:19:14.771Z,40.10
2018-09-17T10:20:18.870Z,40.80
2018-09-17T10:21:24.012Z,39.90
2018-09-17T10:22:28.296Z,39.50
2018-09-17T10:23:32.374Z,39.50
2018-09-17T10:24:36.671Z,41.50
2018-09-17T10:25:40.784Z,38.90
2018-09-17T10:26:44.945Z,38.80
2018-09-17T10:27:49.036Z,38.30
2018-09-17T10:28:53.332Z,37.90
2018-09-17T10:29:57.542Z,37.80
2018-09-17T10:31:01.631Z,37.60
2018-09-17T10:32:06.167Z,37.40
2018-09-17T10:33:10.235Z,43.80
2018-09-17T10:34:14.506Z,37.10
2018-09-17T10:35:19.101Z,36.90
2018-09-17T10:36:23.236Z,36.30
2018-09-17T10:37:27.567Z,36.20
2018-09-17T10:38:31.629Z,35.70
2018-09-17T10:39:35.850Z,35.80
2018-09-17T10:40:40.110Z,35.70
2018-09-17T10:41:44.247Z,35.70
2018-09-17T10:42:48.361Z,35.50
2018-09-17T10:43:52.447Z,35.30
2018-09-17T10:46:00.171Z,34.20
2018-09-17T10:47:04.225Z,34.90
2018-09-17T10:48:09.278Z,34.70
2018-09-17T10:49:13.343Z,34.60
2018-09-17T10:50:17.422Z,34.50
2018-09-17T10:51:21.528Z,34.50
2018-09-17T10:52:25.709Z,34.30
2018-09-17T10:53:29.795Z,34.00
2018-09-17T10:54:34.164Z,34.00
2018-09-17T10:55:38.807Z,33.50
2018-09-17T10:56:43.046Z,33.30
2018-09-17T10:57:47.197Z,32.60
2018-09-17T10:58:51.330Z,32.50
2018-09-17T10:59:55.416Z,32.30
2018-09-17T11:00:59.522Z,32.20
2018-09-17T11:02:03.911Z,32.20
2018-09-17T11:03:08.077Z,32.10
2018-09-17T11:04:12.174Z,31.90
2018-09-17T11:05:16.287Z,31.80
2018-09-17T11:06:20.355Z,31.80
2018-09-17T11:07:24.567Z,31.60
2018-09-17T11:08:28.666Z,31.60
2018-09-17T11:09:32.741Z,31.50
2018-09-17T11:10:37.021Z,31.50
2018-09-17T11:11:41.521Z,31.60
2018-09-17T11:12:45.761Z,31.50
2018-09-17T11:13:49.844Z,31.60
2018-09-17T11:15:00.551Z,31.10
2018-09-17T11:16:04.672Z,31.10
2018-09-17T11:17:08.907Z,30.80
2018-09-17T11:18:12.996Z,30.90
2018-09-17T11:19:17.122Z,30.90
2018-09-17T11:20:21.250Z,31.10
2018-09-17T11:21:25.409Z,30.70
2018-09-17T11:22:29.480Z,30.50
2018-09-17T11:23:33.763Z,30.40
2018-09-17T11:24:37.860Z,30.30
2018-09-17T11:25:42.030Z,30.20
2018-09-17T11:26:46.245Z,30.20
2018-09-17T11:27:50.311Z,30.20
2018-09-17T11:28:54.574Z,30.10
2018-09-17T11:30:00.033Z,30.00
2018-09-17T11:31:04.230Z,30.10
2018-09-17T11:32:08.282Z,30.00
2018-09-17T11:33:12.594Z,29.80
2018-09-17T11:34:16.749Z,29.70
2018-09-17T11:35:20.836Z,29.70
2018-09-17T11:36:31.628Z,29.60
2018-09-17T11:37:35.840Z,29.50
2018-09-17T11:38:39.904Z,29.40
2018-09-17T11:39:44.203Z,29.40
2018-09-17T11:40:48.651Z,29.30
2018-09-17T11:41:52.852Z,29.30
2018-09-17T11:42:57.239Z,29.20
2018-09-17T11:44:01.568Z,29.10
2018-09-17T11:45:12.520Z,29.10
2018-09-17T11:46:16.561Z,29.00
2018-09-17T11:47:20.639Z,29.00
2018-09-17T11:48:24.818Z,29.10
2018-09-17T11:50:32.652Z,41.70
2018-09-17T11:51:36.875Z,28.90
2018-09-17T11:52:41.015Z,28.70
2018-09-17T11:53:45.305Z,28.50
2018-09-17T11:54:49.452Z,28.40
2018-09-17T11:56:57.748Z,27.70
2018-09-17T11:58:02.116Z,28.10
2018-09-17T11:59:06.272Z,27.90
2018-09-17T12:00:10.397Z,27.80
2018-09-17T12:01:19.990Z,27.80
2018-09-17T12:02:29.627Z,27.80
2018-09-17T12:03:39.040Z,27.90
2018-09-17T12:04:48.537Z,27.90
2018-09-17T12:05:58.777Z,27.90
2018-09-17T12:07:08.351Z,28.00
2018-09-17T12:08:14.464Z,27.90
2018-09-17T12:09:18.642Z,28.00
2018-09-17T12:10:22.706Z,27.80
2018-09-17T12:11:26.780Z,27.90
2018-09-17T12:12:30.931Z,27.80
2018-09-17T12:13:35.066Z,27.80
2018-09-17T12:14:39.196Z,27.70
2018-09-17T12:15:44.014Z,27.80
2018-09-17T12:16:48.309Z,27.80
2018-09-17T12:17:52.380Z,27.80
2018-09-17T12:18:56.507Z,27.90
2018-09-17T12:20:00.571Z,28.00
2018-09-17T12:21:04.649Z,28.10
2018-09-17T12:22:08.843Z,28.00
2018-09-17T12:23:13.050Z,27.90
2018-09-17T12:24:17.189Z,27.80
2018-09-17T12:25:21.511Z,27.70
2018-09-17T12:26:25.971Z,27.60
2018-09-17T12:27:30.019Z,27.60
2018-09-17T12:28:34.130Z,27.60
2018-09-17T12:29:38.238Z,27.50
2018-09-17T12:30:42.337Z,27.40
2018-09-17T12:31:46.459Z,27.90
2018-09-17T12:32:50.700Z,27.40
2018-09-17T12:33:54.959Z,27.40
2018-09-17T12:34:59.162Z,27.30
2018-09-17T12:36:03.813Z,27.20
2018-09-17T12:37:07.382Z,27.20
2018-09-17T12:38:11.464Z,27.20
2018-09-17T12:39:15.613Z,27.10
2018-09-17T12:40:19.615Z,27.00
2018-09-17T12:41:23.760Z,26.90
2018-09-17T12:42:28.078Z,26.80
2018-09-17T12:43:32.174Z,26.60
2018-09-17T12:44:36.359Z,26.60
2018-09-17T12:45:40.486Z,26.40
2018-09-17T12:46:44.655Z,26.90
2018-09-17T12:47:48.754Z,26.30
2018-09-17T12:48:52.905Z,26.30
2018-09-17T12:49:57.472Z,26.40
2018-09-17T12:51:01.852Z,26.30
2018-09-17T12:52:06.162Z,26.40
2018-09-17T12:53:10.309Z,26.60
2018-09-17T12:54:14.593Z,26.70
2018-09-17T12:55:19.429Z,26.70
2018-09-17T12:56:23.530Z,27.40
2018-09-17T12:57:27.622Z,27.00
2018-09-17T12:58:32.625Z,27.00
2018-09-17T12:59:36.797Z,27.00
2018-09-17T13:00:41.271Z,26.80
2018-09-17T13:01:45.424Z,26.90
2018-09-17T13:02:49.680Z,26.90
2018-09-17T13:03:53.840Z,26.80
2018-09-17T13:04:58.170Z,26.70
2018-09-17T13:06:02.405Z,26.50
2018-09-17T13:07:06.585Z,26.30
2018-09-17T13:08:10.742Z,26.20
2018-09-17T13:09:14.887Z,26.30
2018-09-17T13:10:18.977Z,26.40
2018-09-17T13:11:23.208Z,26.40
2018-09-17T13:12:27.632Z,26.50
2018-09-17T13:13:31.777Z,26.60
2018-09-17T13:14:35.894Z,27.20
2018-09-17T13:15:45.240Z,26.90
2018-09-17T13:16:49.439Z,27.00
2018-09-17T13:17:53.979Z,27.10
2018-09-17T13:18:58.529Z,27.20
2018-09-17T13:20:09.448Z,27.20
2018-09-17T13:21:13.791Z,27.30
2018-09-17T13:22:18.026Z,27.10
2018-09-17T13:23:22.423Z,27.00
2018-09-17T13:24:26.552Z,26.90
2018-09-17T13:25:30.678Z,26.90
2018-09-17T13:26:34.802Z,27.00
2018-09-17T13:27:38.914Z,27.50
2018-09-17T13:28:42.990Z,26.90
2018-09-17T13:29:47.274Z,27.40
2018-09-17T13:30:51.382Z,27.00
2018-09-17T13:31:55.579Z,27.00
2018-09-17T13:32:59.615Z,27.10
2018-09-17T13:34:04.079Z,27.00
2018-09-17T13:35:08.412Z,27.00
2018-09-17T13:36:13.044Z,27.10
2018-09-17T13:37:17.395Z,27.10
2018-09-17T13:38:22.059Z,27.00
2018-09-17T13:39:26.106Z,27.50
2018-09-17T13:40:30.639Z,26.90
2018-09-17T13:41:34.776Z,27.00
2018-09-17T13:42:38.992Z,26.90
2018-09-17T13:43:43.067Z,26.90
2018-09-17T13:44:47.124Z,27.40
2018-09-17T13:45:51.354Z,26.80
2018-09-17T13:46:55.495Z,26.70
2018-09-17T13:48:00.306Z,26.80
2018-09-17T13:49:04.478Z,26.70
2018-09-17T13:50:08.580Z,26.50
2018-09-17T13:51:12.825Z,26.50
2018-09-17T13:52:17.237Z,26.60
2018-09-17T13:53:21.717Z,26.60
2018-09-17T13:54:25.854Z,26.50
2018-09-17T13:55:29.958Z,26.50
2018-09-17T13:56:34.235Z,26.50